Heidrick, KY (40949)

13:47 EDT le 01 avril 2015 (GMT -0400)
liford's | | Change Station
CLOSE
Current Station
Stations météorologiques personnelles
Location: Barbourville, KY
Altitude: 1066 ft
Stations météo à proximité

Alt. 1066 ft 36.84 °N, 83.85 °W | Updated 8 seconds ago

Ciel dégagé
Ciel dégagé
68.5 ° F
Paraît 68.5 ° F
N
4.7
Vent Variable Vent de ESE

Aujourd'hui
Haut(e) -- | Bas -- ° F
--% Risque de précip.
Hier
Haut(e) -- | Bas -- ° F
Precip. -- pouce
7:21 AM 7:57 PM
Lune gibbeuse croissante, 93% visible
Pression 30.14 pouce
Visibilité 10.0 Miles terrestres
Nuages Ciel dégagé
Point de rosée 22 ° F
Humidité 17%
Précipitations 0.00 pouce
Profondeur de la couche neigeuse Non disponible.
UV 9 sur 12
Pollen 9.90 sur 12
Qualité de l'air Non disponible.
Flu Activity Non disponible.
METAR KLOZ 011653Z AUTO 08005KT 10SM CLR 16/M05 A3015 RMK AO2 SLP204 T01611050

More Conditions Fewer Conditions

Pression 30.14 pouce
Visibilité 10.0 Miles terrestres
Nuages Ciel dégagé
Point de rosée 22 ° F
Humidité 17%
Précipitations 0.00 pouce
Profondeur de la couche neigeuse Non disponible.
UV 9 sur 12
Pollen 9.90 sur 12
Qualité de l'air Non disponible.
Flu Activity Non disponible.
METAR KLOZ 011653Z AUTO 08005KT 10SM CLR 16/M05 A3015 RMK AO2 SLP204 T01611050

More Conditions Fewer Conditions

10-Day Weather Forecast

Almanac

Astronomie

Apr. 01, 2015 Lever Coucher
Temps réel
Crépuscule civil
Crépuscule nautique
Crépuscule astronomique
Lune
Durée de lumière visible
Longueur du jour
Tomorrow will be .
, % of the Moon is Illuminated

Extrêmes aujourd'hui

State Highs State Lows

Community

WunderPhotos

Upload Photos

1,810,018 Photos téléchargées !

WunderBlogs® & News

Nearby

Qualité de l'air

  Qualité de l'air Indice de la qualité de l'air Polluant
Not available.

Épaisseur de neige

Station Depth Altitude

Activité sismique

Ville Distance Mag. Time & Date
Minimum magnitude displayed is 2.5.

Températures des eaux côtières

Lieu Température

Stations

Stations météo à proximité

Emplacement de la station Température Refroidissement éolien Point de rosée Humidité Vent Precip. Alt. Mise à jour Type